Main page
METAR-TAF:

METAR-TAF

Airports :

Santa Maria Airport

Aracaju, Sergipe, Brazil

latitude: 10-59S, longitude: 037-04W, elevation: 8 m

Current weather observation

The report was made 26 minutes ago, at 14:00 UTC
Wind 8 kt from the East/Southeast
Temperature 31°C
Humidity 63%
Pressure 1012 hPa
Visibility 10 km or more
Scattered clouds at a height of 1900 ft

METAR: SBAR 211400Z 11008KT 9999 SCT019 31/23 Q1012

Time: 11:26 (14:26 UTC)

Forecast

The report was made 4 hours and 26 minutes ago, at 10:00 UTC
Forecast valid from 21 at 12 UTC to 22 at 12 UTC
Wind 5 kt from the East
Visibility 10 km or more
Scattered clouds at a height of 2000 ft
Becoming
from 21 at 22 UTC to 21 at 23 UTC
Wind 10 kt from the East/Southeast

TAF: SBAR 211000Z 2112/2212 09005KT 9999 SCT020 TX30/2117Z TN25/2207Z BECMG 2122/2123 120010KT RMK PED

Weather observations and forecasts of more than 4000 airports (METAR and TAF reports).

The available stations are represented by yellow and red dots on the map.

Hover mouse over dot to see the name of the station.

Then click to see weather observations and forecasts.

To change the map : click on the green buttons with a black cross to zoom in, on the green button with a dash to zoom out, or on the green arrows for adjacent maps.


METAR-TAF: